Home > Products > Valid Products > MTR

000
SAUS44 KMAF 291354
MTR6R6
METAR K6R6 291353Z AUTO 00000KT 24/20 A2972 RMK AO1 SLP027 T02390200





000
SAUS44 KMAF 291308
MTRGDP
METAR KGDP 291251Z AUTO 25022G37KT 10SM CLR 12/M03 A2983 RMK AO2 PK
WND 25041/1210 SLP036 T01221033





000
SAUS44 KMAF 291254
MTR6R6
METAR K6R6 291253Z AUTO 13004KT 22/21 A2969 RMK AO1 SLP020 T02220206





000
SAUS44 KMAF 291210 COR
MTRGDP
METAR KGDP 291151Z AUTO 25032G41KT 10SM CLR 12/M03 A2981 RMK AO2 PK
WND 26043/1100 SLP024 T01221033 10178 20122 53003





000
SAUS44 KMAF 291210 COR
MTRGDP
METAR KGDP 291151Z AUTO 25032G41KT 10SM CLR 12/M03 A2981 RMK AO2 PK
WND 26043/1100 SLP024 T01221033 10178 20122 53003





000
SAUS44 KMAF 291209 COR
MTRGDP
METAR KGDP 291151Z AUTO 25032G41KT 10SM CLR 12/M03 A2981 RMK AO2 PK
WND 26043/1100 SLP024 T01221033 10178 20122 53003





000
SAUS44 KMAF 291208
MTRGDP
METAR KGDP 291151Z AUTO 25032G41KT 10SM CLR 12/M03 A2981 RMK AO2 PK
WND 26043/1100 SLP024 T01221033 10178 20122 53003





000
SAUS44 KMAF 291154
MTR6R6
METAR K6R6 291153Z AUTO 12004KT 22/21 A2968 RMK AO1 SLP013 T02220206
10233 20217 51010





000
SAUS44 KMAF 291108
MTRGDP
METAR KGDP 291051Z AUTO 26031G40KT 10SM CLR 14/M04 A2980 RMK AO2 PK
WND 25041/1035 SLP015 T01391039





000
SAUS44 KMAF 291054
MTR6R6
METAR K6R6 291053Z AUTO 12004KT 22/21 A2967 RMK AO1 SLP009 T02220206





000
SAUS44 KMAF 291054
MTR6R6
METAR K6R6 291053Z AUTO 12004KT 22/21 A2967 RMK AO1 SLP009 T02220206





000
SAUS44 KMAF 291008
MTRGDP
METAR KGDP 290951Z AUTO 25027G39KT 10SM CLR 14/M03 A2980 RMK AO2 PK
WND 25039/0947 SLP015 T01391033





000
SAUS44 KMAF 290954
MTR6R6
METAR K6R6 290953Z AUTO 13008KT 23/21 A2966 RMK AO1 SLP004 T02280211





000
SAUS44 KMAF 290910 COR
MTRGDP
METAR KGDP 290851Z AUTO 25026G36KT 10SM CLR 16/M03 A2980 RMK AO2 PK
WND 26036/0842 SLP013 T01561033 58001





000
SAUS44 KMAF 290910 COR
MTRGDP
METAR KGDP 290851Z AUTO 25026G36KT 10SM CLR 16/M03 A2980 RMK AO2 PK
WND 26036/0842 SLP013 T01561033 58001





000
SAUS44 KMAF 290909 COR
MTRGDP
METAR KGDP 290851Z AUTO 25026G36KT 10SM CLR 16/M03 A2980 RMK AO2 PK
WND 26036/0842 SLP013 T01561033 58001





000
SAUS44 KMAF 290909 COR
MTRGDP
METAR KGDP 290851Z AUTO 25026G36KT 10SM CLR 16/M03 A2980 RMK AO2 PK
WND 26036/0842 SLP013 T01561033 58001





000
SAUS44 KMAF 290908
MTRGDP
METAR KGDP 290851Z AUTO 25026G36KT 10SM CLR 16/M03 A2980 RMK AO2 PK
WND 26036/0842 SLP013 T01561033 58001





000
SAUS44 KMAF 290854
MTR6R6
METAR K6R6 290853Z AUTO 12012G20KT 23/21 A2964 RMK AO1 SLP000
T02280211 56007





000
SAUS44 KMAF 290854
MTR6R6
METAR K6R6 290853Z AUTO 12012G20KT 23/21 A2964 RMK AO1 SLP000
T02280211 56007





000
SAUS44 KMAF 290808
MTRGDP
METAR KGDP 290751Z AUTO 26022G31KT 10SM CLR 16/M04 A2982 RMK AO2 PK
WND 27032/0720 SLP021 T01561039





000
SAUS44 KMAF 290755
MTR6R6
METAR K6R6 290753Z AUTO 11014G21KT 23/21 A2965 RMK AO1 SLP001
T02280211





000
SAUS44 KMAF 290714 COR
MTRGDP
METAR KGDP 290651Z AUTO 26022G40KT 10SM CLR 17/M06 A2983 RMK AO2 PK
WND 29040/0646 SLP022 T01721061 402720133





000
SAUS44 KMAF 290709 COR
MTRGDP
METAR KGDP 290651Z AUTO 26022G40KT 10SM CLR 17/M06 A2983 RMK AO2 PK
WND 29040/0646 SLP022 T01721061 402720133





000
SAUS44 KMAF 290708
MTRGDP
METAR KGDP 290651Z AUTO 26022G40KT 10SM CLR 17/M06 A2983 RMK AO2 PK
WND 29040/0646 SLP022 T01721061 402720133





000
SAUS44 KMAF 290708
MTRGDP
METAR KGDP 290651Z AUTO 26022G40KT 10SM CLR 17/M06 A2983 RMK AO2 PK
WND 29040/0646 SLP022 T01721061 402720133





000
SAUS44 KMAF 290654
MTR6R6
METAR K6R6 290653Z AUTO 11017G26KT 23/21 A2966 RMK AO1 PK WND
11026/0652 SLP005 T02330211





000
SAUS44 KMAF 290616 COR
MTRGDP
METAR KGDP 290551Z AUTO 26022G32KT 10SM CLR 18/M07 A2981 RMK AO2 PK
WND 26032/0514 SLP014 T01781072 10256 20172 51003





000
SAUS44 KMAF 290615 COR
MTRGDP
METAR KGDP 290551Z AUTO 26022G32KT 10SM CLR 18/M07 A2981 RMK AO2 PK
WND 26032/0514 SLP014 T01781072 10256 20172 51003





000
SAUS44 KMAF 290615 COR
MTRGDP
METAR KGDP 290551Z AUTO 26022G32KT 10SM CLR 18/M07 A2981 RMK AO2 PK
WND 26032/0514 SLP014 T01781072 10256 20172 51003





000
SAUS44 KMAF 290609 COR
MTRGDP
METAR KGDP 290551Z AUTO 26022G32KT 10SM CLR 18/M07 A2981 RMK AO2 PK
WND 26032/0514 SLP014 T01781072 10256 20172 51003





000
SAUS44 KMAF 290608
MTRGDP
METAR KGDP 290551Z AUTO 26022G32KT 10SM CLR 18/M07 A2981 RMK AO2 PK
WND 26032/0514 SLP014 T01781072 10256 20172 51003





000
SAUS44 KMAF 290608
MTRGDP
METAR KGDP 290551Z AUTO 26022G32KT 10SM CLR 18/M07 A2981 RMK AO2 PK
WND 26032/0514 SLP014 T01781072 10256 20172 51003





000
SAUS44 KMAF 290601 COR
MTR6R6
METAR K6R6 290553Z AUTO 10015G20KT 23/21 A2967 RMK AO1 PK WND
11027/0529 SLP011 T02330206 10289 20233 403170150 58004





000
SAUS44 KMAF 290601 COR
MTR6R6
METAR K6R6 290553Z AUTO 10015G20KT 23/21 A2967 RMK AO1 PK WND
11027/0529 SLP011 T02330206 10289 20233 403170150 58004





000
SAUS44 KMAF 290556 COR
MTR6R6
METAR K6R6 290553Z AUTO 10015G20KT 23/21 A2967 RMK AO1 PK WND
11027/0529 SLP011 T02330206 10289 20233 403170150 58004





000
SAUS44 KMAF 290555
MTR6R6
METAR K6R6 290553Z AUTO 10015G20KT 23/21 A2967 RMK AO1 PK WND
11027/0529 SLP011 T02330206 10289 20233 403170150 58004





000
SAUS44 KMAF 290555
MTR6R6
METAR K6R6 290553Z AUTO 10015G20KT 23/21 A2967 RMK AO1 PK WND
11027/0529 SLP011 T02330206 10289 20233 403170150 58004





000
SAUS44 KMAF 290555 COR
MTR6R6
METAR K6R6 290553Z AUTO 10015G20KT 23/21 A2967 RMK AO1 PK WND
11027/0529 SLP011 T02330206 10289 20233 403170150 58004





000
SAUS44 KMAF 290508
MTRGDP
METAR KGDP 290451Z AUTO 26020KT 10SM CLR 18/M11 A2980 RMK AO2 SLP015
T01831111





000
SAUS44 KMAF 290508
MTRGDP
METAR KGDP 290451Z AUTO 26020KT 10SM CLR 18/M11 A2980 RMK AO2 SLP015
T01831111





000
SAUS44 KMAF 290454
MTR6R6
METAR K6R6 290453Z AUTO 11017G25KT 24/20 A2968 RMK AO1 PK WND
11026/0435 SLP014 T02390200





000
SAUS44 KMAF 290454
MTR6R6
METAR K6R6 290453Z AUTO 11017G25KT 24/20 A2968 RMK AO1 PK WND
11026/0435 SLP014 T02390200





000
SAUS44 KMAF 290408
MTRGDP
METAR KGDP 290351Z AUTO 26011G18KT 10SM CLR 20/M14 A2980 RMK AO2
SLP014 T02001139





000
SAUS44 KMAF 290354
MTR6R6
METAR K6R6 290353Z AUTO 10016G23KT 25/19 A2969 RMK AO1 SLP017
T02500194





000
SAUS44 KMAF 290308
MTRGDP
METAR KGDP 290251Z AUTO 27008KT 10SM CLR 21/M14 A2979 RMK AO2 SLP012
T02111139 51004





000
SAUS44 KMAF 290254
MTR6R6
METAR K6R6 290253Z AUTO 10013KT 26/17 A2968 RMK AO1 SLP016 T02610172
53009





000
SAUS44 KMAF 290254
MTR6R6
METAR K6R6 290253Z AUTO 10013KT 26/17 A2968 RMK AO1 SLP016 T02610172
53009





000
SAUS44 KMAF 290208
MTRGDP
METAR KGDP 290151Z AUTO 30005KT 10SM CLR 22/M14 A2979 RMK AO2 SLP019
T02171139





000
SAUS44 KMAF 290208
MTRGDP
METAR KGDP 290151Z AUTO 30005KT 10SM CLR 22/M14 A2979 RMK AO2 SLP019
T02171139





000
SAUS44 KMAF 290154
MTR6R6
METAR K6R6 290153Z AUTO 10017G22KT 27/17 A2967 RMK AO1 SLP013
T02670172





000
SAUS44 KMAF 290108
MTRGDP
METAR KGDP 290051Z AUTO 25012KT 10SM CLR 23/M14 A2978 RMK AO2 PK WND
24027/2352 SLP014 T02331139





000
SAUS44 KMAF 290108
MTRGDP
METAR KGDP 290051Z AUTO 25012KT 10SM CLR 23/M14 A2978 RMK AO2 PK WND
24027/2352 SLP014 T02331139





000
SAUS44 KMAF 290054
MTR6R6
METAR K6R6 290053Z AUTO 11019G28KT 28/17 A2966 RMK AO1 PK WND
11028/0048 SLP011 T02780167





000
SAUS44 KMAF 290054
MTR6R6
METAR K6R6 290053Z AUTO 11019G28KT 28/17 A2966 RMK AO1 PK WND
11028/0048 SLP011 T02780167





000
SAUS44 KMAF 290008
MTRGDP
METAR KGDP 282351Z AUTO 24022G27KT 10SM CLR 26/M14 A2978 RMK AO2 PK
WND 24033/2337 SLP009 T02561139 10272 20244 55010





000
SAUS44 KMAF 290003 COR
MTR6R6
METAR K6R6 282353Z AUTO 11017G25KT 29/16 A2965 RMK AO1 PK WND
12026/2321 SLP010 T02890161 10317 20267 55012





000
SAUS44 KMAF 282356 COR
MTR6R6
METAR K6R6 282353Z AUTO 11017G25KT 29/16 A2965 RMK AO1 PK WND
12026/2321 SLP010 T02890161 10317 20267 55012





000
SAUS44 KMAF 282356 COR
MTR6R6
METAR K6R6 282353Z AUTO 11017G25KT 29/16 A2965 RMK AO1 PK WND
12026/2321 SLP010 T02890161 10317 20267 55012





000
SAUS44 KMAF 282354
MTR6R6
METAR K6R6 282353Z AUTO 11017G25KT 29/16 A2965 RMK AO1 PK WND
12026/2321 SLP010 T02890161 10317 20267 55012





000
SAUS44 KMAF 282309 COR
MTRGDP
METAR KGDP 282251Z AUTO 24019G36KT 10SM CLR 26/M14 A2978 RMK AO2 PK
WND 23036/2241 SLP009 T02611139





000
SAUS44 KMAF 282309 COR
MTRGDP
METAR KGDP 282251Z AUTO 24019G36KT 10SM CLR 26/M14 A2978 RMK AO2 PK
WND 23036/2241 SLP009 T02611139





000
SAUS44 KMAF 282308
MTRGDP
METAR KGDP 282251Z AUTO 24019G36KT 10SM CLR 26/M14 A2978 RMK AO2 PK
WND 23036/2241 SLP009 T02611139





000
SAUS44 KMAF 282254
MTR6R6
METAR K6R6 282253Z AUTO 11019G23KT 31/16 A2964 RMK AO1 PK WND
10028/2204 SLP004 T03060161





000
SAUS44 KMAF 282208
MTRGDP
METAR KGDP 282151Z AUTO 24020G28KT 10SM CLR 26/M13 A2980 RMK AO2 PK
WND 26041/2120 SLP012 T02611133





000
SAUS44 KMAF 282155
MTR6R6
METAR K6R6 282153Z AUTO 11017G22KT 31/17 A2966 RMK AO1 PK WND
10026/2113 SLP008 T03110167





000
SAUS44 KMAF 282109 COR
MTRGDP
METAR KGDP 282051Z AUTO 25026G32KT 10SM CLR 27/M13 A2982 RMK AO2 PK
WND 24039/2037 SLP018 T02671133 56009





000
SAUS44 KMAF 282108
MTRGDP
METAR KGDP 282051Z AUTO 25026G32KT 10SM CLR 27/M13 A2982 RMK AO2 PK
WND 24039/2037 SLP018 T02671133 56009





000
SAUS44 KMAF 282055
MTR6R6
METAR K6R6 282053Z AUTO 13014G22KT 32/17 A2969 RMK AO1 SLP018
T03170167 58023





000
SAUS44 KMAF 282008
MTRGDP
METAR KGDP 281951Z AUTO 24030G42KT 10SM CLR 26/M13 A2982 RMK AO2 PK
WND 24043/1900 SLP017 T02611128





000
SAUS44 KMAF 281955
MTR6R6
METAR K6R6 281953Z AUTO 12013G22KT 31/18 A2972 RMK AO1 SLP027
T03060178





000
SAUS44 KMAF 281908
MTRGDP
METAR KGDP 281851Z AUTO 24031G38KT 10SM CLR 25/M12 A2983 RMK AO2 PK
WND 24042/1759 SLP021 T02501117





000
SAUS44 KMAF 281855
MTR6R6
METAR K6R6 281853Z AUTO 11013G21KT 28/18 A2974 RMK AO1 SLP036
T02830183





000
SAUS44 KMAF 281855
MTR6R6
METAR K6R6 281853Z AUTO 11013G21KT 28/18 A2974 RMK AO1 SLP036
T02830183





000
SAUS44 KMAF 281809 COR
MTRGDP
METAR KGDP 281751Z AUTO 24024G40KT 10SM CLR 24/M12 A2985 RMK AO2 PK
WND 24043/1720 SLP029 T02441117 10244 20133 58007





000
SAUS44 KMAF 281808 COR
MTRGDP
METAR KGDP 281751Z AUTO 24024G40KT 10SM CLR 24/M12 A2985 RMK AO2 PK
WND 24043/1720 SLP029 T02441117 10244 20133 58007





000
SAUS44 KMAF 281754
MTR6R6
METAR K6R6 281753Z AUTO 11014G23KT 27/18 A2976 RMK AO1 SLP044
T02670178 10272 20150 58005





000
SAUS44 KMAF 281708
MTRGDP
METAR KGDP 281651Z AUTO 24020G34KT 10SM CLR 23/M09 A2987 RMK AO2 PK
WND 25038/1632 SLP039 T02281094





000
SAUS44 KMAF 281708
MTRGDP
METAR KGDP 281651Z AUTO 24020G34KT 10SM CLR 23/M09 A2987 RMK AO2 PK
WND 25038/1632 SLP039 T02281094





000
SAUS44 KMAF 281654
MTR6R6
METAR K6R6 281653Z AUTO 11014G20KT 27/16 A2978 RMK AO1 SLP050
T02670161





000
SAUS44 KMAF 281608
MTRGDP
METAR KGDP 281551Z AUTO 25028G40KT 10SM CLR 21/M09 A2987 RMK AO2 PK
WND 26040/1545 SLP045 T02061094





000
SAUS44 KMAF 281554
MTR6R6
METAR K6R6 281553Z AUTO 12012KT 26/12 A2978 RMK AO1 SLP050 T02610117





000
SAUS44 KMAF 281508
MTRGDP
METAR KGDP 281451Z AUTO 25030G35KT 10SM CLR 19/M08 A2987 RMK AO2 PK
WND 25035/1451 SLP046 T01941083 50001





000
SAUS44 KMAF 281454
MTR6R6
METAR K6R6 281453Z AUTO 14012KT 23/07 A2978 RMK AO1 SLP049 T02330072
51014





000
SAUS44 KMAF 281454
MTR6R6
METAR K6R6 281453Z AUTO 14012KT 23/07 A2978 RMK AO1 SLP049 T02330072
51014





000
SAUS44 KMAF 281408
MTRGDP
METAR KGDP 281351Z AUTO 23015KT 10SM CLR 15/M09 A2989 RMK AO2 SLP057
T01501089





000
SAUS44 KMAF 281355
MTR6R6
METAR K6R6 281353Z AUTO 07006KT 20/06 A2977 RMK AO1 SLP048 T02000061





000
SAUS44 KMAF 281355
MTR6R6
METAR K6R6 281353Z AUTO 07006KT 20/06 A2977 RMK AO1 SLP048 T02000061





000
SAUS44 KMAF 281308
MTRGDP
METAR KGDP 281251Z AUTO 23008KT 10SM CLR 14/M10 A2988 RMK AO2 SLP054
T01391100





000
SAUS44 KMAF 281254
MTR6R6
METAR K6R6 281253Z AUTO 04007KT 17/04 A2976 RMK AO1 SLP044 T01670039





000
SAUS44 KMAF 281208
MTRGDP
METAR KGDP 281151Z AUTO 22012KT 10SM CLR 14/M11 A2987 RMK AO2 SLP048
T01391111 10172 20133 53003





000
SAUS44 KMAF 281154
MTR6R6
METAR K6R6 281153Z AUTO 03008KT 15/02 A2973 RMK AO1 SLP035 T01500022
10222 20150 51009





000
SAUS44 KMAF 281108
MTRGDP
METAR KGDP 281051Z AUTO 24010KT 10SM CLR 14/M11 A2986 RMK AO2 SLP044
T01391111





000
SAUS44 KMAF 281108
MTRGDP
METAR KGDP 281051Z AUTO 24010KT 10SM CLR 14/M11 A2986 RMK AO2 SLP044
T01391111





000
SAUS44 KMAF 281054
MTR6R6
METAR K6R6 281053Z AUTO 01005KT 16/01 A2973 RMK AO1 SLP034 T01560011





000
SAUS44 KMAF 281008
MTRGDP
METAR KGDP 280951Z AUTO 26013KT 10SM CLR 16/M12 A2986 RMK AO2 SLP039
T01561117





000
SAUS44 KMAF 280954
MTR6R6
METAR K6R6 280953Z AUTO 01005KT 17/01 A2972 RMK AO1 SLP027 T01670011





000
SAUS44 KMAF 280908
MTRGDP
METAR KGDP 280851Z AUTO 24011KT 10SM CLR 16/M12 A2986 RMK AO2 SLP040
T01561117 58003





000
SAUS44 KMAF 280855
MTR6R6
METAR K6R6 280853Z AUTO 04005KT 18/00 A2970 RMK AO1 SLP023 T01780000
58006





000
SAUS44 KMAF 280808
MTRGDP
METAR KGDP 280751Z AUTO 23010KT 10SM CLR 17/M12 A2986 RMK AO2 SLP037
T01721122





000
SAUS44 KMAF 280754
MTR6R6
METAR K6R6 280753Z AUTO 06007KT 20/00 A2971 RMK AO1 SLP023 T02000000





000
SAUS44 KMAF 280754
MTR6R6
METAR K6R6 280753Z AUTO 06007KT 20/00 A2971 RMK AO1 SLP023 T02000000





000
SAUS44 KMAF 280708
MTRGDP
METAR KGDP 280651Z AUTO 23010KT 10SM CLR 17/M12 A2987 RMK AO2 SLP043
T01671117 402330072





000
SAUS44 KMAF 280708
MTRGDP
METAR KGDP 280651Z AUTO 23010KT 10SM CLR 17/M12 A2987 RMK AO2 SLP043
T01671117 402330072





000
SAUS44 KMAF 280655
MTR6R6
METAR K6R6 280653Z AUTO 05006KT 20/01 A2973 RMK AO1 SLP031 T02000006





000
SAUS44 KMAF 280655
MTR6R6
METAR K6R6 280653Z AUTO 05006KT 20/01 A2973 RMK AO1 SLP031 T02000006





000
SAUS44 KMAF 280608
MTRGDP
METAR KGDP 280551Z AUTO 23010KT 10SM CLR 17/M12 A2987 RMK AO2 SLP043
T01721117 10211 20167 51002





000
SAUS44 KMAF 280608
MTRGDP
METAR KGDP 280551Z AUTO 23010KT 10SM CLR 17/M12 A2987 RMK AO2 SLP043
T01721117 10211 20167 51002





000
SAUS44 KMAF 280554
MTR6R6
METAR K6R6 280553Z AUTO 08007KT 22/01 A2972 RMK AO1 SLP028 T02220006
10322 20222 403330161 58002





000
SAUS44 KMAF 280508
MTRGDP
METAR KGDP 280451Z AUTO 25015KT 10SM CLR 17/M12 A2986 RMK AO2 SLP046
T01721117





000
SAUS44 KMAF 280454
MTR6R6
METAR K6R6 280453Z AUTO 10008KT 23/02 A2973 RMK AO1 SLP030 T02280017





000
SAUS44 KMAF 280408
MTRGDP
METAR KGDP 280351Z AUTO 24012KT 10SM CLR 17/M11 A2987 RMK AO2 SLP052
T01671111





000
SAUS44 KMAF 280355
MTR6R6
METAR K6R6 280353Z AUTO 12011KT 24/01 A2973 RMK AO1 SLP031 T02390006





000
SAUS44 KMAF 280308
MTRGDP
METAR KGDP 280251Z AUTO 25015KT 10SM CLR 17/M11 A2986 RMK AO2 SLP059
T01671111 53013





000
SAUS44 KMAF 280308
MTRGDP
METAR KGDP 280251Z AUTO 25015KT 10SM CLR 17/M11 A2986 RMK AO2 SLP059
T01671111 53013





000
SAUS44 KMAF 280254
MTR6R6
METAR K6R6 280253Z AUTO 13010KT 25/01 A2973 RMK AO1 SLP031 T02500006
53017





000
SAUS44 KMAF 280208
MTRGDP
METAR KGDP 280151Z AUTO 25020KT 10SM CLR 18/M12 A2983 RMK AO2 PK WND
25028/0052 SLP052 T01781117





000
SAUS44 KMAF 280154
MTR6R6
METAR K6R6 280153Z AUTO 13010G16KT 27/00 A2971 RMK AO1 SLP025
T02670000





000
SAUS44 KMAF 280108
MTRGDP
METAR KGDP 280051Z AUTO 24023G29KT 10SM CLR 19/M12 A2984 RMK AO2 PK
WND 24034/2353 SLP053 T01941122





000
SAUS44 KMAF 280054
MTR6R6
METAR K6R6 280053Z AUTO 19008KT 31/M07 A2968 RMK AO1 SLP015
T03111072





000
SAUS44 KMAF 280009 COR
MTRGDP
METAR KGDP 272351Z AUTO 24028G39KT 10SM SQ CLR 21/M12 A2982 RMK AO2
PK WND 25039/2259 SLP039 T02111117 10233 20200 56004





000
SAUS44 KMAF 280008 COR
MTRGDP
METAR KGDP 272351Z AUTO 24028G39KT 10SM SQ CLR 21/M12 A2982 RMK AO2
PK WND 25039/2259 SLP039 T02111117 10233 20200 56004





000
SAUS44 KMAF 280007
MTRGDP
METAR KGDP 272351Z AUTO 24028G39KT 10SM SQ CLR 21/M12 A2982 RMK AO2
PK WND 25039/2259 SLP039 T02111117 10233 20200 56004





000
SAUS44 KMAF 280006
MTRGDP
SPECI KGDP 272349Z AUTO 24024G37KT 10SM SQ CLR 21/M12 A2982 RMK AO2
PK WND 25039/2259





000
SAUS44 KMAF 272354
MTR6R6
METAR K6R6 272353Z AUTO 21010KT 32/M07 A2968 RMK AO1 SLP012
T03221072 10333 20283 56014





000
SAUS44 KMAF 272354
MTR6R6
METAR K6R6 272353Z AUTO 21010KT 32/M07 A2968 RMK AO1 SLP012
T03221072 10333 20283 56014





000
SAUS44 KMAF 272307
MTRGDP
METAR KGDP 272251Z AUTO 25029G40KT 10SM CLR 22/M12 A2982 RMK AO2 PK
WND 25040/2245 SLP039 T02221117





000
SAUS44 KMAF 272255
MTR6R6
METAR K6R6 272253Z AUTO 22010G18KT 33/M07 A2968 RMK AO1 SLP015
T03281072





000
SAUS44 KMAF 272208
MTRGDP
METAR KGDP 272151Z AUTO 23021G43KT 180V250 10SM CLR 22/M11 A2983 RMK
AO2 PK WND 25043/2148 SLP045 T02221111





000
SAUS44 KMAF 272154
MTR6R6
METAR K6R6 272153Z AUTO 25010G23KT 33/M07 A2970 RMK AO1 PK WND
22027/2114 SLP019 T03281067





000
SAUS44 KMAF 272152
MTRGDP
SPECI KGDP 272136Z AUTO 24031G42KT 10SM SQ CLR 22/M12 A2984 RMK AO2
PK WND 25042/2130 T02221117





000
SAUS44 KMAF 272107
MTRGDP
METAR KGDP 272051Z AUTO 24029G40KT 10SM CLR 22/M11 A2985 RMK AO2 PK
WND 24046/2017 SLP043 T02171106 56023





000
SAUS44 KMAF 272054
MTR6R6
METAR K6R6 272053Z AUTO 21011G22KT 32/M07 A2972 RMK AO1 PK WND
22026/2010 SLP026 T03221072 56031





000
SAUS44 KMAF 272054
MTR6R6
METAR K6R6 272053Z AUTO 21011G22KT 32/M07 A2972 RMK AO1 PK WND
22026/2010 SLP026 T03221072 56031





000
SAUS44 KMAF 272007
MTRGDP
METAR KGDP 271951Z AUTO 25034G45KT 10SM CLR 22/M09 A2985 RMK AO2 PK
WND 25045/1951 SLP044 T02221094





000
SAUS44 KMAF 271955
MTR6R6
METAR K6R6 271953Z AUTO 24018KT 33/M07 A2975 RMK AO1 SLP035
T03281067 $





000
SAUS44 KMAF 271908
MTRGDP
METAR KGDP 271851Z AUTO 25027G34KT 10SM CLR 22/M07 A2989 RMK AO2 PK
WND 25038/1827 SLP059 T02171072





000
SAUS44 KMAF 271854
MTR6R6
METAR K6R6 271853Z AUTO VRB05KT 30/M08 A2979 RMK AO1 SLP048
T03001078 $





000
SAUS44 KMAF 271854
MTR6R6
METAR K6R6 271853Z AUTO VRB05KT 30/M08 A2979 RMK AO1 SLP048
T03001078 $





000
SAUS44 KMAF 271809 COR
MTRGDP
METAR KGDP 271751Z AUTO 24019G27KT 10SM CLR 20/M07 A2993 RMK AO2 PK
WND 25031/1738 SLP075 T02001067 10200 20072 58006





000
SAUS44 KMAF 271809 COR
MTRGDP
METAR KGDP 271751Z AUTO 24019G27KT 10SM CLR 20/M07 A2993 RMK AO2 PK
WND 25031/1738 SLP075 T02001067 10200 20072 58006





000
SAUS44 KMAF 271808
MTRGDP
METAR KGDP 271751Z AUTO 24019G27KT 10SM CLR 20/M07 A2993 RMK AO2 PK
WND 25031/1738 SLP075 T02001067 10200 20072 58006





000
SAUS44 KMAF 271808 COR
MTRGDP
METAR KGDP 271751Z AUTO 24019G27KT 10SM CLR 20/M07 A2993 RMK AO2 PK
WND 25031/1738 SLP075 T02001067 10200 20072 58006





000
SAUS44 KMAF 271754
MTR6R6
METAR K6R6 271753Z AUTO 19011KT 29/M06 A2982 RMK AO1 SLP060
T02941056 10294 20172 58007 $





000
SAUS44 KMAF 271708
MTRGDP
METAR KGDP 271651Z AUTO 25019G28KT 10SM CLR 18/M06 A2995 RMK AO2 PK
WND 24029/1621 SLP083 T01831061





000
SAUS44 KMAF 271708
MTRGDP
METAR KGDP 271651Z AUTO 25019G28KT 10SM CLR 18/M06 A2995 RMK AO2 PK
WND 24029/1621 SLP083 T01831061





000
SAUS44 KMAF 271654
MTR6R6
METAR K6R6 271653Z AUTO 24008KT 28/M07 A2984 RMK AO1 SLP068
T02781067 $





000
SAUS44 KMAF 271607
MTRGDP
METAR KGDP 271551Z AUTO 24017G24KT 10SM CLR 16/M07 A2995 RMK AO2
SLP086 T01611072





000
SAUS44 KMAF 271554
MTR6R6
METAR K6R6 271553Z AUTO 30011G15KT 27/M07 A2985 RMK AO1 SLP069
T02721067 $





000
SAUS44 KMAF 271508
MTRGDP
METAR KGDP 271451Z AUTO 22012KT 10SM CLR 11/M09 A2995 RMK AO2 SLP095
T01111089 51012





000
SAUS44 KMAF 271454
MTR6R6
METAR K6R6 271453Z AUTO 29012G22KT 26/M07 A2984 RMK AO1 SLP067
T02611067 51016 $





000
SAUS44 KMAF 271408
MTRGDP
METAR KGDP 271351Z AUTO 20009KT 10SM CLR 08/M09 A2995 RMK AO2 SLP096
T00831094





000
SAUS44 KMAF 271408
MTRGDP
METAR KGDP 271351Z AUTO 20009KT 10SM CLR 08/M09 A2995 RMK AO2 SLP096
T00831094





000
SAUS44 KMAF 271354
MTR6R6
METAR K6R6 271353Z AUTO 27007KT 23/M06 A2983 RMK AO1 SLP065
T02331061 $





000
SAUS44 KMAF 271354
MTR6R6
METAR K6R6 271353Z AUTO 27007KT 23/M06 A2983 RMK AO1 SLP065
T02331061 $





000
SAUS44 KMAF 271307
MTRGDP
METAR KGDP 271251Z AUTO 20009KT 10SM CLR 07/M10 A2992 RMK AO2 SLP087
T00721100





000
SAUS44 KMAF 271307
MTRGDP
METAR KGDP 271251Z AUTO 20009KT 10SM CLR 07/M10 A2992 RMK AO2 SLP087
T00721100





000
SAUS44 KMAF 271254
MTR6R6
METAR K6R6 271253Z AUTO 31008KT 19/M07 A2981 RMK AO1 SLP056
T01941067 $





000
SAUS44 KMAF 271254
MTR6R6
METAR K6R6 271253Z AUTO 31008KT 19/M07 A2981 RMK AO1 SLP056
T01941067 $





000
SAUS44 KMAF 271207
MTRGDP
METAR KGDP 271151Z AUTO 23013KT 10SM CLR 08/M10 A2991 RMK AO2 SLP076
T00831100 10133 20078 51014





000
SAUS44 KMAF 271154
MTR6R6
METAR K6R6 271153Z AUTO 29009KT 19/M08 A2979 RMK AO1 SLP050
T01941078 10244 20161 51010 $





000
SAUS44 KMAF 271107
MTRGDP
METAR KGDP 271051Z AUTO 24015KT 10SM CLR 08/M11 A2991 RMK AO2 SLP073
T00831106





000
SAUS44 KMAF 271107
MTRGDP
METAR KGDP 271051Z AUTO 24015KT 10SM CLR 08/M11 A2991 RMK AO2 SLP073
T00831106





000
SAUS44 KMAF 271055
MTR6R6
METAR K6R6 271053Z AUTO 32009KT 17/M07 A2978 RMK AO1 SLP048
T01671072 $





000
SAUS44 KMAF 271007
MTRGDP
METAR KGDP 270951Z AUTO 23015KT 10SM CLR 08/M11 A2989 RMK AO2 PK WND
27036/0859 SLP067 T00781106





000
SAUS44 KMAF 270955
MTR6R6
METAR K6R6 270953Z AUTO 33005KT 19/M07 A2978 RMK AO1 SLP046
T01941072 $





000
SAUS44 KMAF 270907
MTRGDP
METAR KGDP 270851Z AUTO 26026G36KT 10SM CLR 13/M12 A2986 RMK AO2 PK
WND 27038/0840 SLP049 T01281117 58007





000
SAUS44 KMAF 270907
MTRGDP
METAR KGDP 270851Z AUTO 26026G36KT 10SM CLR 13/M12 A2986 RMK AO2 PK
WND 27038/0840 SLP049 T01281117 58007





000
SAUS44 KMAF 270855
MTR6R6
METAR K6R6 270853Z AUTO 32010KT 22/M08 A2976 RMK AO1 SLP037
T02171078 53008 $





000
SAUS44 KMAF 270807
MTRGDP
METAR KGDP 270751Z AUTO 26027G37KT 10SM CLR 12/M11 A2987 RMK AO2 PK
WND 26039/0736 SLP052 T01221106





000
SAUS44 KMAF 270807
MTRGDP
METAR KGDP 270751Z AUTO 26027G37KT 10SM CLR 12/M11 A2987 RMK AO2 PK
WND 26039/0736 SLP052 T01221106





000
SAUS44 KMAF 270755
MTR6R6
METAR K6R6 270753Z AUTO 33016KT 23/M08 A2974 RMK AO1 SLP031
T02331083 $





000
SAUS44 KMAF 270755
MTR6R6
METAR K6R6 270753Z AUTO 33016KT 23/M08 A2974 RMK AO1 SLP031
T02331083 $





000
SAUS44 KMAF 270708
MTRGDP
METAR KGDP 270651Z AUTO 25022KT 10SM CLR 11/M12 A2989 RMK AO2 PK WND
26032/0554 SLP062 T01111117 402170111





000
SAUS44 KMAF 270708
MTRGDP
METAR KGDP 270651Z AUTO 25022KT 10SM CLR 11/M12 A2989 RMK AO2 PK WND
26032/0554 SLP062 T01111117 402170111





000
SAUS44 KMAF 270654
MTR6R6
METAR K6R6 270653Z AUTO 34014G20KT 23/M07 A2974 RMK AO1 SLP030
T02331072 $





000
SAUS44 KMAF 270609 COR
MTRGDP
METAR KGDP 270551Z AUTO 26026G32KT 10SM CLR 12/M12 A2989 RMK AO2 PK
WND 26032/0550 SLP058 T01221122 10189 20122 50005





000
SAUS44 KMAF 270609 COR
MTRGDP
METAR KGDP 270551Z AUTO 26026G32KT 10SM CLR 12/M12 A2989 RMK AO2 PK
WND 26032/0550 SLP058 T01221122 10189 20122 50005





000
SAUS44 KMAF 270608 COR
MTRGDP
METAR KGDP 270551Z AUTO 26026G32KT 10SM CLR 12/M12 A2989 RMK AO2 PK
WND 26032/0550 SLP058 T01221122 10189 20122 50005





000
SAUS44 KMAF 270608 COR
MTRGDP
METAR KGDP 270551Z AUTO 26026G32KT 10SM CLR 12/M12 A2989 RMK AO2 PK
WND 26032/0550 SLP058 T01221122 10189 20122 50005





000
SAUS44 KMAF 270607
MTRGDP
METAR KGDP 270551Z AUTO 26026G32KT 10SM CLR 12/M12 A2989 RMK AO2 PK
WND 26032/0550 SLP058 T01221122 10189 20122 50005





000
SAUS44 KMAF 270555
MTR6R6
METAR K6R6 270553Z AUTO 34009KT 22/M05 A2973 RMK AO1 SLP030
T02221050 10350 20222 403720200 51019 $





000
SAUS44 KMAF 270508
MTRGDP
METAR KGDP 270451Z AUTO 25022KT 10SM CLR 13/M13 A2990 RMK AO2 PK WND
26032/0415 SLP064 T01281128





000
SAUS44 KMAF 270508
MTRGDP
METAR KGDP 270451Z AUTO 25022KT 10SM CLR 13/M13 A2990 RMK AO2 PK WND
26032/0415 SLP064 T01281128





000
SAUS44 KMAF 270454
MTR6R6
METAR K6R6 270453Z AUTO 35008KT 24/M05 A2973 RMK AO1 SLP028
T02441050 $





000
SAUS44 KMAF 270454
MTR6R6
METAR K6R6 270453Z AUTO 35008KT 24/M05 A2973 RMK AO1 SLP028
T02441050 $





000
SAUS44 KMAF 270408
MTRGDP
METAR KGDP 270351Z AUTO 26022G28KT 10SM CLR 14/M13 A2990 RMK AO2 PK
WND 29039/0258 SLP063 T01391133





000
SAUS44 KMAF 270354
MTR6R6
METAR K6R6 270353Z AUTO 35008KT 26/M01 A2970 RMK AO1 SLP021
T02611006 $





000
SAUS44 KMAF 270308
MTRGDP
METAR KGDP 270251Z AUTO 26026G36KT 10SM CLR 14/M12 A2987 RMK AO2 PK
WND 25037/0201 SLP054 T01441122 53029





000
SAUS44 KMAF 270308
MTRGDP
METAR KGDP 270251Z AUTO 26026G36KT 10SM CLR 14/M12 A2987 RMK AO2 PK
WND 25037/0201 SLP054 T01441122 53029





000
SAUS44 KMAF 270254
MTR6R6
METAR K6R6 270253Z AUTO 03009KT 27/18 A2967 RMK AO1 SLP011 T02720183
53039 $





000
SAUS44 KMAF 270254
MTR6R6
METAR K6R6 270253Z AUTO 03009KT 27/18 A2967 RMK AO1 SLP011 T02720183
53039 $





000
SAUS44 KMAF 270208
MTRGDP
METAR KGDP 270151Z AUTO 26030G40KT 10SM CLR 16/M10 A2983 RMK AO2 PK
WND 25049/0100 SLP040 T01561100





000
SAUS44 KMAF 270154
MTR6R6
METAR K6R6 270153Z AUTO 12012KT 28/18 A2959 RMK AO1 SLP983 T02780183
$





000
SAUS44 KMAF 270107
MTRGDP
METAR KGDP 270051Z AUTO 25036G44KT 10SM CLR 17/M11 A2978 RMK AO2 PK
WND 25052/0014 SLP026 T01721111





000
SAUS44 KMAF 270107
MTRGDP
METAR KGDP 270051Z AUTO 25036G44KT 10SM CLR 17/M11 A2978 RMK AO2 PK
WND 25052/0014 SLP026 T01721111





000
SAUS44 KMAF 270054
MTR6R6
METAR K6R6 270053Z AUTO 25009KT 33/M08 A2956 RMK AO1 PK WND
23027/0003 SLP971 T03331078 $





000
SAUS44 KMAF 270054
MTR6R6
METAR K6R6 270053Z AUTO 25009KT 33/M08 A2956 RMK AO1 PK WND
23027/0003 SLP971 T03331078 $





000
SAUS44 KMAF 270009 COR
MTRGDP
METAR KGDP 262351Z AUTO 25040G50KT 10SM CLR 19/M12 A2977 RMK AO2 PK
WND 25053/2335 SLP015 T01891122 10217 20189 55006





000
SAUS44 KMAF 270008 COR
MTRGDP
METAR KGDP 262351Z AUTO 25040G50KT 10SM CLR 19/M12 A2977 RMK AO2 PK
WND 25053/2335 SLP015 T01891122 10217 20189 55006





000
SAUS44 KMAF 270008 COR
MTRGDP
METAR KGDP 262351Z AUTO 25040G50KT 10SM CLR 19/M12 A2977 RMK AO2 PK
WND 25053/2335 SLP015 T01891122 10217 20189 55006





000
SAUS44 KMAF 270007
MTRGDP
METAR KGDP 262351Z AUTO 25040G50KT 10SM CLR 19/M12 A2977 RMK AO2 PK
WND 25053/2335 SLP015 T01891122 10217 20189 55006





000
SAUS44 KMAF 270007
MTRGDP
METAR KGDP 262351Z AUTO 25040G50KT 10SM CLR 19/M12 A2977 RMK AO2 PK
WND 25053/2335 SLP015 T01891122 10217 20189 55006





000
SAUS44 KMAF 262354
MTR6R6
METAR K6R6 262353Z AUTO 25019KT 35/M08 A2955 RMK AO1 PK WND
24032/2327 SLP965 T03501078 10372 20311 55002 $





000
SAUS44 KMAF 262354
MTR6R6
METAR K6R6 262353Z AUTO 25019KT 35/M08 A2955 RMK AO1 PK WND
24032/2327 SLP965 T03501078 10372 20311 55002 $





000
SAUS44 KMAF 262331
MTRGDP
SPECI KGDP 262315Z AUTO 25035G52KT 10SM SQ CLR 20/M14 A2977 RMK AO2
PK WND 25052/2308 T02001139





000
SAUS44 KMAF 262308
MTRGDP
METAR KGDP 262251Z AUTO 24034G51KT 10SM CLR 20/M13 A2976 RMK AO2 PK
WND 25064/2227 SLP009 T02001133





000
SAUS44 KMAF 262308
MTRGDP
METAR KGDP 262251Z AUTO 24034G51KT 10SM CLR 20/M13 A2976 RMK AO2 PK
WND 25064/2227 SLP009 T02001133





000
SAUS44 KMAF 262303 COR
MTR6R6
METAR K6R6 262253Z AUTO 25018G26KT 36/M07 A2954 RMK AO1 PK WND
25026/2250 WSHFT 2156 SLP962 T03611067 $





000
SAUS44 KMAF 262303 COR
MTR6R6
METAR K6R6 262253Z AUTO 25018G26KT 36/M07 A2954 RMK AO1 PK WND
25026/2250 WSHFT 2156 SLP962 T03611067 $





000
SAUS44 KMAF 262256 COR
MTR6R6
METAR K6R6 262253Z AUTO 25018G26KT 36/M07 A2954 RMK AO1 PK WND
25026/2250 WSHFT 2156 SLP962 T03611067 $





000
SAUS44 KMAF 262255 COR
MTR6R6
METAR K6R6 262253Z AUTO 25018G26KT 36/M07 A2954 RMK AO1 PK WND
25026/2250 WSHFT 2156 SLP962 T03611067 $





000
SAUS44 KMAF 262254
MTR6R6
METAR K6R6 262253Z AUTO 25018G26KT 36/M07 A2954 RMK AO1 PK WND
25026/2250 WSHFT 2156 SLP962 T03611067 $





000
SAUS44 KMAF 262237
MTRGDP
SPECI KGDP 262220Z AUTO 24041G54KT 10SM CLR 21/M12 A2974 RMK AO2 PK
WND 25054/2220 T02061122





000
SAUS44 KMAF 262227
MTRGDP
SPECI KGDP 262211Z AUTO 25039G50KT 2 1/2SM HZ CLR 21/M11 A2977 RMK
AO2 PK WND 26051/2200 T02111111





000
SAUS44 KMAF 262217
MTR6R6
SPECI K6R6 262216Z AUTO 21016G25KT 37/M06 A2954 RMK AO1 WSHFT 2156
T03671056





000
SAUS44 KMAF 262217
MTR6R6
SPECI K6R6 262216Z AUTO 21016G25KT 37/M06 A2954 RMK AO1 WSHFT 2156
T03671056





000
SAUS44 KMAF 262207
MTRGDP
METAR KGDP 262151Z AUTO 25042G50KT 9SM CLR 21/M11 A2976 RMK AO2 PK
WND 25051/2135 SLP008 T02111106





000
SAUS44 KMAF 262154
MTR6R6
METAR K6R6 262153Z AUTO 19013G25KT 35/11 A2954 RMK AO1 WSHFT 2107
SLP964 T03500106





000
SAUS44 KMAF 262128
MTR6R6
SPECI K6R6 262127Z AUTO 19015G20KT 37/M04 A2955 RMK AO1 WSHFT 2107
T03671039





000
SAUS44 KMAF 262109 COR
MTRGDP
METAR KGDP 262051Z AUTO 24032G52KT 10SM CLR 21/M08 A2979 RMK AO2 PK
WND 26056/2013 SLP016 T02061078 56003





000
SAUS44 KMAF 262108 COR
MTRGDP
METAR KGDP 262051Z AUTO 24032G52KT 10SM CLR 21/M08 A2979 RMK AO2 PK
WND 26056/2013 SLP016 T02061078 56003





000
SAUS44 KMAF 262107
MTRGDP
METAR KGDP 262051Z AUTO 24032G52KT 10SM CLR 21/M08 A2979 RMK AO2 PK
WND 26056/2013 SLP016 T02061078 56003





000
SAUS44 KMAF 262054
MTR6R6
METAR K6R6 262053Z AUTO 13009G19KT 36/08 A2956 RMK AO1 SLP968
T03610083 56036





000
SAUS44 KMAF 262007
MTRGDP
METAR KGDP 261951Z AUTO 25041G50KT 10SM CLR 21/M07 A2979 RMK AO2 PK
WND 25055/1902 SLP017 T02061072





000
SAUS44 KMAF 261954
MTR6R6
METAR K6R6 261953Z AUTO 20012G24KT 36/M03 A2959 RMK AO1 SLP979
T03561028





000
SAUS44 KMAF 261954
MTR6R6
METAR K6R6 261953Z AUTO 20012G24KT 36/M03 A2959 RMK AO1 SLP979
T03561028





000
SAUS44 KMAF 261907
MTRGDP
METAR KGDP 261851Z AUTO 24031G55KT 10SM CLR 21/M06 A2979 RMK AO2 PK
WND 25061/1827 SLP016 T02111056 $





000
SAUS44 KMAF 261907
MTRGDP
METAR KGDP 261851Z AUTO 24031G55KT 10SM CLR 21/M06 A2979 RMK AO2 PK
WND 25061/1827 SLP016 T02111056 $





000
SAUS44 KMAF 261858
MTRGDP
SPECI KGDP 261842Z AUTO 23030G50KT 10SM SQ CLR 21/M06 A2979 RMK AO2
PK WND 25061/1827 T02111056 $





000
SAUS44 KMAF 261854
MTR6R6
METAR K6R6 261853Z AUTO 17014G20KT 34/04 A2962 RMK AO1 PRESFR SLP990
T03390044





000
SAUS44 KMAF 261809 COR
MTRGDP
METAR KGDP 261751Z AUTO 25038G53KT 10SM FEW095 21/M06 A2980 RMK AO2
PK WND 25053/1707 SLP018 T02061056 10211 20133 58001 $





000
SAUS44 KMAF 261808 COR
MTRGDP
METAR KGDP 261751Z AUTO 25038G53KT 10SM FEW095 21/M06 A2980 RMK AO2
PK WND 25053/1707 SLP018 T02061056 10211 20133 58001 $





000
SAUS44 KMAF 261807
MTRGDP
METAR KGDP 261751Z AUTO 25038G53KT 10SM FEW095 21/M06 A2980 RMK AO2
PK WND 25053/1707 SLP018 T02061056 10211 20133 58001 $





000
SAUS44 KMAF 261755
MTR6R6
METAR K6R6 261753Z AUTO 15008KT 32/08 A2967 RMK AO1 SLP007 T03170078
10317 20211 58018





000
SAUS44 KMAF 261755
MTR6R6
METAR K6R6 261753Z AUTO 15008KT 32/08 A2967 RMK AO1 SLP007 T03170078
10317 20211 58018





000
SAUS44 KMAF 261707
MTRGDP
METAR KGDP 261651Z AUTO 24027G44KT 10SM CLR 21/M02 A2981 RMK AO2 PK
WND 25054/1632 SLP019 T02061022





000
SAUS44 KMAF 261707
MTRGDP
METAR KGDP 261651Z AUTO 24027G44KT 10SM CLR 21/M02 A2981 RMK AO2 PK
WND 25054/1632 SLP019 T02061022





000
SAUS44 KMAF 261654
MTR6R6
METAR K6R6 261653Z AUTO 19007KT 29/13 A2970 RMK AO1 SLP018 T02940128





000
SAUS44 KMAF 261654
MTR6R6
METAR K6R6 261653Z AUTO 19007KT 29/13 A2970 RMK AO1 SLP018 T02940128





000
SAUS44 KMAF 261607
MTRGDP
METAR KGDP 261551Z AUTO 25035G44KT 10SM CLR 19/00 A2980 RMK AO2 PK
WND 25044/1551 SLP017 T01890000





000
SAUS44 KMAF 261607
MTRGDP
METAR KGDP 261551Z AUTO 25035G44KT 10SM CLR 19/00 A2980 RMK AO2 PK
WND 25044/1551 SLP017 T01890000





000
SAUS44 KMAF 261554
MTR6R6
METAR K6R6 261553Z AUTO 19006KT 26/17 A2972 RMK AO1 SLP026 T02610167





000
SAUS44 KMAF 261507
MTRGDP
METAR KGDP 261451Z AUTO 24025G35KT 10SM CLR 18/01 A2980 RMK AO2 PK
WND 25036/1428 SLP016 T01780006 51005





000
SAUS44 KMAF 261507
MTRGDP
METAR KGDP 261451Z AUTO 24025G35KT 10SM CLR 18/01 A2980 RMK AO2 PK
WND 25036/1428 SLP016 T01780006 51005





000
SAUS44 KMAF 261455
MTR6R6
METAR K6R6 261453Z AUTO 00000KT 24/18 A2973 RMK AO1 SLP030 T02390183
51013





000
SAUS44 KMAF 261455
MTR6R6
METAR K6R6 261453Z AUTO 00000KT 24/18 A2973 RMK AO1 SLP030 T02390183
51013





000
SAUS44 KMAF 261407
MTRGDP
METAR KGDP 261351Z AUTO 26025G30KT 10SM CLR 17/00 A2980 RMK AO2 PK
WND 25030/1350 SLP016 T01670000





000
SAUS44 KMAF 261407
MTRGDP
METAR KGDP 261351Z AUTO 26025G30KT 10SM CLR 17/00 A2980 RMK AO2 PK
WND 25030/1350 SLP016 T01670000





    US Dept of Commerce
    National Oceanic and Atmospheric Administration
    National Weather Service
    1325 East West Highway
    Silver Spring, MD 20910
    Page Author: NWS Internet Services Team
Disclaimer
Information Quality
Credits
Glossary
Privacy Policy
Freedom of Information Act (FOIA)
About Us
Career Opportunities